createdAt,value
2023-08-06T00:00:07.675Z,97.20
2023-08-06T00:01:08.050Z,97.31
2023-08-06T00:02:07.700Z,97.31
2023-08-06T00:03:07.734Z,97.61
2023-08-06T00:04:07.613Z,97.51
2023-08-06T00:05:07.644Z,98.02
2023-08-06T00:06:07.602Z,98.02
2023-08-06T00:07:07.668Z,98.16
2023-08-06T00:08:07.594Z,98.16
2023-08-06T00:09:07.555Z,98.16
2023-08-06T00:10:07.603Z,98.22
2023-08-06T00:11:07.536Z,98.32
2023-08-06T00:12:07.517Z,98.37
2023-08-06T00:13:07.490Z,98.37
2023-08-06T00:14:07.518Z,98.32
2023-08-06T00:15:07.483Z,98.32
2023-08-06T00:16:07.457Z,98.32
2023-08-06T00:17:07.480Z,98.57
2023-08-06T00:18:07.432Z,98.47
2023-08-06T00:19:07.425Z,98.68
2023-08-06T00:20:07.758Z,98.68
2023-08-06T00:21:07.380Z,98.88
2023-08-06T00:22:07.372Z,98.77
2023-08-06T00:23:07.370Z,98.77
2023-08-06T00:24:07.376Z,98.77
2023-08-06T00:25:07.357Z,98.77
2023-08-06T00:26:07.370Z,98.77
2023-08-06T00:27:07.310Z,98.57
2023-08-06T00:28:07.312Z,98.27
2023-08-06T00:29:07.289Z,98.16
2023-08-06T00:30:07.252Z,98.07
2023-08-06T00:31:07.291Z,97.96
2023-08-06T00:32:07.269Z,97.86
2023-08-06T00:33:07.268Z,97.96
2023-08-06T00:34:07.228Z,97.96
2023-08-06T00:35:07.232Z,98.07
2023-08-06T00:36:07.173Z,98.16
2023-08-06T00:37:07.182Z,98.27
2023-08-06T00:38:07.188Z,98.22
2023-08-06T00:39:07.147Z,98.16
2023-08-06T00:40:07.155Z,98.12
2023-08-06T00:41:07.103Z,98.02
2023-08-06T00:42:07.120Z,97.92
2023-08-06T00:43:07.093Z,98.02
2023-08-06T00:44:07.094Z,98.02
2023-08-06T00:45:07.065Z,98.02
2023-08-06T00:46:07.089Z,97.92
2023-08-06T00:47:07.041Z,98.02
2023-08-06T00:48:07.004Z,98.12
2023-08-06T00:49:07.009Z,98.12
2023-08-06T00:50:07.018Z,98.02
2023-08-06T00:51:06.975Z,98.02
2023-08-06T00:52:07.003Z,97.92
2023-08-06T00:53:06.974Z,97.92
2023-08-06T00:54:06.961Z,98.02
2023-08-06T00:55:07.020Z,98.22
2023-08-06T00:56:07.022Z,98.22
2023-08-06T00:57:06.915Z,98.22
2023-08-06T00:58:06.912Z,98.02
2023-08-06T00:59:06.871Z,97.71
2023-08-06T01:00:06.851Z,97.66
2023-08-06T01:01:06.908Z,97.86
2023-08-06T01:02:06.934Z,98.16
2023-08-06T01:03:06.870Z,98.07
2023-08-06T01:04:06.843Z,98.16
2023-08-06T01:05:06.810Z,98.16
2023-08-06T01:06:06.801Z,98.16
2023-08-06T01:07:06.830Z,98.27
2023-08-06T01:08:06.771Z,98.37
2023-08-06T01:09:06.744Z,98.16
2023-08-06T01:10:06.727Z,98.07
2023-08-06T01:11:06.726Z,97.96
2023-08-06T01:12:06.697Z,97.86
2023-08-06T01:13:06.709Z,97.96
2023-08-06T01:14:06.694Z,98.16
2023-08-06T01:15:06.672Z,98.16
2023-08-06T01:16:06.703Z,98.27
2023-08-06T01:17:06.632Z,98.07
2023-08-06T01:18:06.627Z,98.07
2023-08-06T01:19:06.639Z,98.07
2023-08-06T01:20:06.589Z,98.07
2023-08-06T01:21:06.596Z,98.07
2023-08-06T01:22:06.559Z,98.16
2023-08-06T01:23:06.575Z,98.07
2023-08-06T01:24:06.545Z,98.07
2023-08-06T01:25:06.551Z,98.16
2023-08-06T01:26:06.545Z,98.07
2023-08-06T01:27:06.490Z,98.07
2023-08-06T01:28:06.488Z,98.07
2023-08-06T01:29:06.469Z,98.07
2023-08-06T01:30:06.470Z,97.96
2023-08-06T01:31:06.475Z,97.96
2023-08-06T01:32:06.439Z,97.86
2023-08-06T01:33:06.575Z,97.76
2023-08-06T01:34:06.413Z,97.66
2023-08-06T01:35:06.392Z,97.56
2023-08-06T01:36:06.382Z,97.66
2023-08-06T01:37:06.430Z,97.66
2023-08-06T01:38:06.356Z,97.56
2023-08-06T01:39:06.335Z,97.76
2023-08-06T01:40:06.317Z,97.66
2023-08-06T01:41:06.310Z,97.76
2023-08-06T01:42:06.302Z,97.86
2023-08-06T01:43:06.318Z,97.96
2023-08-06T01:44:06.275Z,97.96
2023-08-06T01:45:06.250Z,97.76
2023-08-06T01:46:06.276Z,97.86
2023-08-06T01:47:06.238Z,97.96
2023-08-06T01:48:06.269Z,98.07
2023-08-06T01:49:06.236Z,98.16
2023-08-06T01:50:06.314Z,98.16
2023-08-06T01:51:06.178Z,98.27
2023-08-06T01:52:06.177Z,98.37
2023-08-06T01:53:06.148Z,98.37
2023-08-06T01:54:06.148Z,98.57
2023-08-06T01:55:06.140Z,98.57
2023-08-06T01:56:06.127Z,98.68
2023-08-06T01:57:06.102Z,98.68
2023-08-06T01:58:06.090Z,98.88
2023-08-06T01:59:06.077Z,98.77
2023-08-06T02:00:06.066Z,98.68
2023-08-06T02:01:06.069Z,98.47
2023-08-06T02:02:06.011Z,98.82
2023-08-06T02:03:06.010Z,99.02
2023-08-06T02:04:06.014Z,99.02
2023-08-06T02:05:06.029Z,98.72
2023-08-06T02:06:05.956Z,98.92
2023-08-06T02:07:05.948Z,99.13
2023-08-06T02:08:05.991Z,99.13
2023-08-06T02:09:05.936Z,98.92
2023-08-06T02:10:05.961Z,98.92
2023-08-06T02:11:05.905Z,98.92
2023-08-06T02:12:05.891Z,99.02
2023-08-06T02:13:05.864Z,99.02
2023-08-06T02:14:05.905Z,99.02
2023-08-06T02:15:05.839Z,99.02
2023-08-06T02:16:05.884Z,99.02
2023-08-06T02:17:05.841Z,99.13
2023-08-06T02:18:05.810Z,99.13
2023-08-06T02:19:05.785Z,99.13
2023-08-06T02:20:05.796Z,99.02
2023-08-06T02:21:05.787Z,99.02
2023-08-06T02:22:05.802Z,98.92
2023-08-06T02:23:05.735Z,98.52
2023-08-06T02:24:05.722Z,98.01
2023-08-06T02:25:05.713Z,97.30
2023-08-06T02:26:05.732Z,96.69
2023-08-06T02:27:05.768Z,96.69
2023-08-06T02:28:05.696Z,96.43
2023-08-06T02:29:05.663Z,96.53
2023-08-06T02:30:05.653Z,96.53
2023-08-06T02:31:05.676Z,96.23
2023-08-06T02:32:05.622Z,96.02
2023-08-06T02:33:05.601Z,96.12
2023-08-06T02:34:05.627Z,96.12
2023-08-06T02:35:05.583Z,96.02
2023-08-06T02:36:05.594Z,96.17
2023-08-06T02:37:05.548Z,96.27
2023-08-06T02:38:05.545Z,96.07
2023-08-06T02:39:05.564Z,95.46
2023-08-06T02:40:05.515Z,94.24
2023-08-06T02:41:05.523Z,93.93
2023-08-06T02:42:05.489Z,94.34
2023-08-06T02:43:05.494Z,94.74
2023-08-06T02:44:05.464Z,94.95
2023-08-06T02:45:05.463Z,94.95
2023-08-06T02:46:05.544Z,95.36
2023-08-06T02:47:05.413Z,95.56
2023-08-06T02:48:05.463Z,96.07
2023-08-06T02:49:05.392Z,96.17
2023-08-06T02:50:05.394Z,96.27
2023-08-06T02:51:06.196Z,96.37
2023-08-06T02:52:05.369Z,96.58
2023-08-06T02:53:05.344Z,96.58
2023-08-06T02:54:05.320Z,96.68
2023-08-06T02:55:05.325Z,96.47
2023-08-06T02:56:05.296Z,95.91
2023-08-06T02:57:05.317Z,96.11
2023-08-06T02:58:05.264Z,96.11
2023-08-06T02:59:05.261Z,96.31
2023-08-06T03:00:05.253Z,96.42
2023-08-06T03:01:05.291Z,96.62
2023-08-06T03:02:05.242Z,96.83
2023-08-06T03:03:05.234Z,97.03
2023-08-06T03:04:05.219Z,96.92
2023-08-06T03:05:05.205Z,96.62
2023-08-06T03:06:05.177Z,96.62
2023-08-06T03:07:05.155Z,96.92
2023-08-06T03:08:05.154Z,96.92
2023-08-06T03:09:05.152Z,96.87
2023-08-06T03:10:05.122Z,96.77
2023-08-06T03:11:05.094Z,96.87
2023-08-06T03:12:05.092Z,96.97
2023-08-06T03:13:05.082Z,96.77
2023-08-06T03:14:05.074Z,96.67
2023-08-06T03:15:05.061Z,96.67
2023-08-06T03:16:05.031Z,96.67
2023-08-06T03:17:05.029Z,96.72
2023-08-06T03:18:05.052Z,96.92
2023-08-06T03:19:05.015Z,96.92
2023-08-06T03:20:04.976Z,97.03
2023-08-06T03:21:05.000Z,97.23
2023-08-06T03:22:04.946Z,97.13
2023-08-06T03:23:04.940Z,97.13
2023-08-06T03:24:04.973Z,97.23
2023-08-06T03:25:04.913Z,97.03
2023-08-06T03:26:04.927Z,96.77
2023-08-06T03:27:04.883Z,96.26
2023-08-06T03:28:04.858Z,96.56
2023-08-06T03:29:04.853Z,96.97
2023-08-06T03:30:04.839Z,97.07
2023-08-06T03:31:04.861Z,97.17
2023-08-06T03:32:04.848Z,97.17
2023-08-06T03:33:04.857Z,97.07
2023-08-06T03:34:04.779Z,97.07
2023-08-06T03:35:04.774Z,97.07
2023-08-06T03:36:04.750Z,96.97
2023-08-06T03:37:04.752Z,96.97
2023-08-06T03:38:04.742Z,96.97
2023-08-06T03:39:04.718Z,97.07
2023-08-06T03:40:04.699Z,97.17
2023-08-06T03:41:04.704Z,97.28
2023-08-06T03:42:04.669Z,97.28
2023-08-06T03:43:04.667Z,97.28
2023-08-06T03:44:04.690Z,97.28
2023-08-06T03:45:04.638Z,97.48
2023-08-06T03:46:04.629Z,97.48
2023-08-06T03:47:04.620Z,97.58
2023-08-06T03:48:04.594Z,97.38
2023-08-06T03:49:04.598Z,97.48
2023-08-06T03:50:04.596Z,97.53
2023-08-06T03:51:04.592Z,97.32
2023-08-06T03:52:04.533Z,97.22
2023-08-06T03:53:04.538Z,96.92
2023-08-06T03:54:04.529Z,96.41
2023-08-06T03:55:04.533Z,96.20
2023-08-06T03:56:04.507Z,96.10
2023-08-06T03:57:04.496Z,96.30
2023-08-06T03:58:04.488Z,96.67
2023-08-06T03:59:04.449Z,96.67
2023-08-06T04:00:04.480Z,96.36
2023-08-06T04:01:04.553Z,95.69
2023-08-06T04:02:04.408Z,95.24
2023-08-06T04:03:04.512Z,95.14
2023-08-06T04:04:04.398Z,95.24
2023-08-06T04:05:04.366Z,95.34
2023-08-06T04:06:04.371Z,95.04
2023-08-06T04:07:04.363Z,94.32
2023-08-06T04:08:04.345Z,95.04
2023-08-06T04:09:04.322Z,94.93
2023-08-06T04:10:04.317Z,94.73
2023-08-06T04:11:04.285Z,94.02
2023-08-06T04:12:04.277Z,94.32
2023-08-06T04:13:04.294Z,93.10
2023-08-06T04:14:04.259Z,93.10
2023-08-06T04:15:04.234Z,93.31
2023-08-06T04:16:04.258Z,93.26
2023-08-06T04:17:04.214Z,92.90
2023-08-06T04:18:04.242Z,93.16
2023-08-06T04:19:04.231Z,93.47
2023-08-06T04:20:04.196Z,92.04
2023-08-06T04:21:04.150Z,92.35
2023-08-06T04:22:04.152Z,93.16
2023-08-06T04:23:04.139Z,93.37
2023-08-06T04:24:04.112Z,92.86
2023-08-06T04:25:04.121Z,93.16
2023-08-06T04:26:04.088Z,93.06
2023-08-06T04:27:04.078Z,93.47
2023-08-06T04:28:04.063Z,93.98
2023-08-06T04:29:04.050Z,94.28
2023-08-06T04:30:04.053Z,93.77
2023-08-06T04:31:04.130Z,93.98
2023-08-06T04:32:04.020Z,92.86
2023-08-06T04:33:04.050Z,93.37
2023-08-06T04:34:04.041Z,93.98
2023-08-06T04:35:03.982Z,94.28
2023-08-06T04:36:04.003Z,94.79
2023-08-06T04:37:03.960Z,94.79
2023-08-06T04:38:03.925Z,94.73
2023-08-06T04:39:03.925Z,94.63
2023-08-06T04:40:03.890Z,95.24
2023-08-06T04:41:03.900Z,95.30
2023-08-06T04:42:03.871Z,95.00
2023-08-06T04:43:03.906Z,94.93
2023-08-06T04:44:03.836Z,95.00
2023-08-06T04:45:03.855Z,95.00
2023-08-06T04:46:03.880Z,95.20
2023-08-06T04:47:03.809Z,95.40
2023-08-06T04:48:03.899Z,95.40
2023-08-06T04:49:03.830Z,95.40
2023-08-06T04:50:03.767Z,95.30
2023-08-06T04:51:03.756Z,95.24
2023-08-06T04:52:03.762Z,95.24
2023-08-06T04:53:03.713Z,95.34
2023-08-06T04:54:03.708Z,95.54
2023-08-06T04:55:03.739Z,96.01
2023-08-06T04:56:03.699Z,96.22
2023-08-06T04:57:03.669Z,96.11
2023-08-06T04:58:03.650Z,95.95
2023-08-06T04:59:03.652Z,95.54
2023-08-06T05:00:03.631Z,95.24
2023-08-06T05:01:03.666Z,95.04
2023-08-06T05:02:03.622Z,95.04
2023-08-06T05:03:03.679Z,95.34
2023-08-06T05:04:03.687Z,95.54
2023-08-06T05:05:03.564Z,95.85
2023-08-06T05:06:03.571Z,96.15
2023-08-06T05:07:03.562Z,96.46
2023-08-06T05:08:03.529Z,96.67
2023-08-06T05:09:03.506Z,96.83
2023-08-06T05:10:03.512Z,96.67
2023-08-06T05:11:03.476Z,96.36
2023-08-06T05:12:03.484Z,95.85
2023-08-06T05:13:03.488Z,95.54
2023-08-06T05:14:03.462Z,96.06
2023-08-06T05:15:03.461Z,96.46
2023-08-06T05:16:03.453Z,96.67
2023-08-06T05:17:03.423Z,96.26
2023-08-06T05:18:03.404Z,95.85
2023-08-06T05:19:03.400Z,94.93
2023-08-06T05:20:03.369Z,93.21
2023-08-06T05:21:03.357Z,94.32
2023-08-06T05:22:03.438Z,94.63
2023-08-06T05:23:03.335Z,94.93
2023-08-06T05:24:03.305Z,95.45
2023-08-06T05:25:03.331Z,95.14
2023-08-06T05:26:03.303Z,95.34
2023-08-06T05:27:03.283Z,95.65
2023-08-06T05:28:03.269Z,95.85
2023-08-06T05:29:03.262Z,94.84
2023-08-06T05:30:03.238Z,94.59
2023-08-06T05:31:03.249Z,94.38
2023-08-06T05:32:03.239Z,94.08
2023-08-06T05:33:03.225Z,94.08
2023-08-06T05:34:03.194Z,94.59
2023-08-06T05:35:03.165Z,94.69
2023-08-06T05:36:03.176Z,94.89
2023-08-06T05:37:03.185Z,95.40
2023-08-06T05:38:03.179Z,95.70
2023-08-06T05:39:03.126Z,95.91
2023-08-06T05:40:03.123Z,95.70
2023-08-06T05:41:03.119Z,95.54
2023-08-06T05:42:03.104Z,95.45
2023-08-06T05:43:03.087Z,94.73
2023-08-06T05:44:04.598Z,95.14
2023-08-06T05:45:03.032Z,95.04
2023-08-06T05:46:03.077Z,94.84
2023-08-06T05:47:03.004Z,94.84
2023-08-06T05:48:03.029Z,95.04
2023-08-06T05:49:03.009Z,95.14
2023-08-06T05:50:02.954Z,95.45
2023-08-06T05:51:02.961Z,95.45
2023-08-06T05:52:02.929Z,95.34
2023-08-06T05:53:02.966Z,95.24
2023-08-06T05:54:02.900Z,94.93
2023-08-06T05:55:02.954Z,95.24
2023-08-06T05:56:02.877Z,95.54
2023-08-06T05:57:02.899Z,95.65
2023-08-06T05:58:02.870Z,95.24
2023-08-06T05:59:02.835Z,95.24
2023-08-06T06:00:02.847Z,95.14
2023-08-06T06:01:02.881Z,95.04
2023-08-06T06:02:02.801Z,94.93
2023-08-06T06:03:02.828Z,95.00
2023-08-06T06:04:02.783Z,95.40
2023-08-06T06:05:02.778Z,95.30
2023-08-06T06:06:02.754Z,94.53
2023-08-06T06:07:02.797Z,95.34
2023-08-06T06:08:02.727Z,95.34
2023-08-06T06:09:02.716Z,95.24
2023-08-06T06:10:02.713Z,95.54
2023-08-06T06:11:02.691Z,95.85
2023-08-06T06:12:02.657Z,95.85
2023-08-06T06:13:02.682Z,95.45
2023-08-06T06:14:02.644Z,95.45
2023-08-06T06:15:02.634Z,94.12
2023-08-06T06:16:02.636Z,94.32
2023-08-06T06:17:02.605Z,93.41
2023-08-06T06:18:02.629Z,91.58
2023-08-06T06:19:02.618Z,92.40
2023-08-06T06:20:02.560Z,92.90
2023-08-06T06:21:02.551Z,93.31
2023-08-06T06:22:02.580Z,93.57
2023-08-06T06:23:02.542Z,93.77
2023-08-06T06:24:02.503Z,94.28
2023-08-06T06:25:02.585Z,94.59
2023-08-06T06:26:02.482Z,94.28
2023-08-06T06:27:02.491Z,94.48
2023-08-06T06:28:02.486Z,94.59
2023-08-06T06:29:02.459Z,94.89
2023-08-06T06:30:02.430Z,95.09
2023-08-06T06:31:02.527Z,94.59
2023-08-06T06:32:02.411Z,94.79
2023-08-06T06:33:02.426Z,95.09
2023-08-06T06:34:02.387Z,95.09
2023-08-06T06:35:02.375Z,94.69
2023-08-06T06:36:02.358Z,94.69
2023-08-06T06:37:02.384Z,95.00
2023-08-06T06:38:02.349Z,94.69
2023-08-06T06:39:02.318Z,94.59
2023-08-06T06:40:02.307Z,94.38
2023-08-06T06:41:02.293Z,94.18
2023-08-06T06:42:02.278Z,94.28
2023-08-06T06:43:02.338Z,94.48
2023-08-06T06:44:02.249Z,94.89
2023-08-06T06:45:02.233Z,95.09
2023-08-06T06:46:02.269Z,94.28
2023-08-06T06:47:02.203Z,94.28
2023-08-06T06:48:02.284Z,94.18
2023-08-06T06:49:02.209Z,94.28
2023-08-06T06:50:02.268Z,94.79
2023-08-06T06:51:02.239Z,94.79
2023-08-06T06:52:02.142Z,94.08
2023-08-06T06:53:02.121Z,93.77
2023-08-06T06:54:02.115Z,94.08
2023-08-06T06:55:02.138Z,93.98
2023-08-06T06:56:02.086Z,94.18
2023-08-06T06:57:02.135Z,94.69
2023-08-06T06:58:02.073Z,95.00
2023-08-06T06:59:02.046Z,94.18
2023-08-06T07:00:03.757Z,93.87
2023-08-06T07:01:02.075Z,94.38
2023-08-06T07:02:02.372Z,93.77
2023-08-06T07:03:02.038Z,92.76
2023-08-06T07:04:02.021Z,92.25
2023-08-06T07:05:01.967Z,91.74
2023-08-06T07:06:02.007Z,91.60
2023-08-06T07:07:02.029Z,88.95
2023-08-06T07:08:01.928Z,90.99
2023-08-06T07:09:01.923Z,90.78
2023-08-06T07:10:01.902Z,91.29
2023-08-06T07:11:01.877Z,90.88
2023-08-06T07:12:01.874Z,91.49
2023-08-06T07:13:01.882Z,91.69
2023-08-06T07:14:01.834Z,91.69
2023-08-06T07:15:01.841Z,91.60
2023-08-06T07:16:01.814Z,92.21
2023-08-06T07:17:01.837Z,92.61
2023-08-06T07:18:01.829Z,92.82
2023-08-06T07:19:01.798Z,93.43
2023-08-06T07:20:01.771Z,91.69
2023-08-06T07:21:01.763Z,91.60
2023-08-06T07:22:01.748Z,89.26
2023-08-06T07:23:01.860Z,89.76
2023-08-06T07:24:01.717Z,90.27
2023-08-06T07:25:01.727Z,90.03
2023-08-06T07:26:01.705Z,90.13
2023-08-06T07:27:01.700Z,90.53
2023-08-06T07:28:01.649Z,88.60
2023-08-06T07:29:01.628Z,88.50
2023-08-06T07:30:01.661Z,87.69
2023-08-06T07:31:01.660Z,88.20
2023-08-06T07:32:01.601Z,89.11
2023-08-06T07:33:01.654Z,90.13
2023-08-06T07:34:01.576Z,90.64
2023-08-06T07:35:01.561Z,90.80
2023-08-06T07:36:01.568Z,90.29
2023-08-06T07:37:01.577Z,89.48
2023-08-06T07:38:01.522Z,88.97
2023-08-06T07:39:01.643Z,89.88
2023-08-06T07:40:01.493Z,90.29
2023-08-06T07:41:01.495Z,90.49
2023-08-06T07:42:01.487Z,89.13
2023-08-06T07:43:01.465Z,89.13
2023-08-06T07:44:01.466Z,88.01
2023-08-06T07:45:01.449Z,84.56
2023-08-06T07:46:01.448Z,81.82
2023-08-06T07:47:01.423Z,82.23
2023-08-06T07:48:01.409Z,80.77
2023-08-06T07:49:01.371Z,81.18
2023-08-06T07:50:01.432Z,82.90
2023-08-06T07:51:01.350Z,82.19
2023-08-06T07:52:01.340Z,82.80
2023-08-06T07:53:01.378Z,83.71
2023-08-06T07:54:01.317Z,84.48
2023-08-06T07:55:01.288Z,83.67
2023-08-06T07:56:01.293Z,82.56
2023-08-06T07:57:01.259Z,84.48
2023-08-06T07:58:01.261Z,81.95
2023-08-06T07:59:01.274Z,82.62
2023-08-06T08:00:01.253Z,81.40
2023-08-06T08:01:04.034Z,80.59
2023-08-06T08:02:01.200Z,80.08
2023-08-06T08:03:01.244Z,78.63
2023-08-06T08:04:01.178Z,78.63
2023-08-06T08:05:01.209Z,77.82
2023-08-06T08:06:01.158Z,76.80
2023-08-06T08:07:01.145Z,77.92
2023-08-06T08:08:01.131Z,77.92
2023-08-06T08:09:01.121Z,77.82
2023-08-06T08:10:01.097Z,76.70
2023-08-06T08:11:01.118Z,77.11
2023-08-06T08:12:01.537Z,75.49
2023-08-06T08:13:01.045Z,75.08
2023-08-06T08:14:01.048Z,73.16
2023-08-06T08:15:01.036Z,73.46
2023-08-06T08:16:01.010Z,76.29
2023-08-06T08:17:01.023Z,77.31
2023-08-06T08:18:01.064Z,77.11
2023-08-06T08:19:00.981Z,75.89
2023-08-06T08:20:00.988Z,75.49
2023-08-06T08:21:00.952Z,76.50
2023-08-06T08:22:00.948Z,77.61
2023-08-06T08:23:00.918Z,77.82
2023-08-06T08:24:00.892Z,79.13
2023-08-06T08:25:00.892Z,78.73
2023-08-06T08:26:00.861Z,79.38
2023-08-06T08:27:00.870Z,78.87
2023-08-06T08:28:00.886Z,79.58
2023-08-06T08:29:00.830Z,80.39
2023-08-06T08:30:00.820Z,81.85
2023-08-06T08:31:00.875Z,82.25
2023-08-06T08:32:00.794Z,82.25
2023-08-06T08:33:00.832Z,82.76
2023-08-06T08:34:00.839Z,81.88
2023-08-06T08:35:00.802Z,82.80
2023-08-06T08:36:00.728Z,85.53
2023-08-06T08:37:00.747Z,85.13
2023-08-06T08:38:00.708Z,86.25
2023-08-06T08:39:00.711Z,86.65
2023-08-06T08:40:00.738Z,85.74
2023-08-06T08:41:00.668Z,86.35
2023-08-06T08:42:00.660Z,85.74
2023-08-06T08:43:00.644Z,85.74
2023-08-06T08:44:00.630Z,85.03
2023-08-06T08:45:00.617Z,86.05
2023-08-06T08:46:00.692Z,85.44
2023-08-06T08:47:00.593Z,87.16
2023-08-06T08:48:00.640Z,87.46
2023-08-06T08:49:00.559Z,88.38
2023-08-06T08:50:00.552Z,88.18
2023-08-06T08:51:00.545Z,87.97
2023-08-06T08:52:00.549Z,86.45
2023-08-06T08:53:00.519Z,86.25
2023-08-06T08:54:00.501Z,84.99
2023-08-06T08:55:00.492Z,84.89
2023-08-06T08:56:00.479Z,81.34
2023-08-06T08:57:00.455Z,82.86
2023-08-06T08:58:00.465Z,85.19
2023-08-06T08:59:00.443Z,86.31
2023-08-06T09:00:00.433Z,87.73
2023-08-06T09:01:00.407Z,88.75
2023-08-06T09:02:00.443Z,89.76
2023-08-06T09:03:00.398Z,89.96
2023-08-06T09:04:00.401Z,90.57
2023-08-06T09:05:00.353Z,90.16
2023-08-06T09:06:00.349Z,88.90
2023-08-06T09:07:00.317Z,87.08
2023-08-06T09:08:00.315Z,86.47
2023-08-06T09:09:00.298Z,86.47
2023-08-06T09:10:00.316Z,87.08
2023-08-06T09:11:00.264Z,86.68
2023-08-06T09:12:00.280Z,84.64
2023-08-06T09:13:00.257Z,85.56
2023-08-06T09:14:00.222Z,85.46
2023-08-06T09:15:00.230Z,86.07
2023-08-06T09:16:00.289Z,85.76
2023-08-06T09:17:00.215Z,87.38
2023-08-06T09:18:00.234Z,87.79
2023-08-06T09:19:00.157Z,86.57
2023-08-06T09:20:00.191Z,85.76
2023-08-06T09:21:00.177Z,85.05
2023-08-06T09:22:00.126Z,85.46
2023-08-06T09:23:00.109Z,85.46
2023-08-06T09:24:00.118Z,86.47
2023-08-06T09:25:00.101Z,87.08
2023-08-06T09:26:00.157Z,85.56
2023-08-06T09:27:00.048Z,84.75
2023-08-06T09:28:00.052Z,85.25
2023-08-06T09:29:00.055Z,87.65
2023-08-06T09:30:00.030Z,85.82
2023-08-06T09:31:00.052Z,85.82
2023-08-06T09:32:00.005Z,83.49
2023-08-06T09:33:00.024Z,81.57
2023-08-06T09:33:59.974Z,82.17
2023-08-06T09:34:59.941Z,82.48
2023-08-06T09:35:59.938Z,83.80
2023-08-06T09:36:59.953Z,84.91
2023-08-06T09:37:59.900Z,84.16
2023-08-06T09:38:59.957Z,85.07
2023-08-06T09:39:59.888Z,86.39
2023-08-06T09:40:59.860Z,84.67
2023-08-06T09:41:59.856Z,81.23
2023-08-06T09:42:59.892Z,78.69
2023-08-06T09:43:59.813Z,80.62
2023-08-06T09:44:59.814Z,81.02
2023-08-06T09:45:59.827Z,82.03
2023-08-06T09:46:59.800Z,82.84
2023-08-06T09:47:59.860Z,80.21
2023-08-06T09:48:59.789Z,80.31
2023-08-06T09:49:59.751Z,81.83
2023-08-06T09:50:59.750Z,82.84
2023-08-06T09:51:59.723Z,84.67
2023-08-06T09:52:59.698Z,77.37
2023-08-06T09:54:00.551Z,80.41
2023-08-06T09:54:59.741Z,82.30
2023-08-06T09:55:59.657Z,77.95
2023-08-06T09:56:59.654Z,76.23
2023-08-06T09:57:59.636Z,76.53
2023-08-06T09:58:59.634Z,79.87
2023-08-06T09:59:59.613Z,81.79
2023-08-06T10:00:59.668Z,81.79
2023-08-06T10:01:59.585Z,81.29
2023-08-06T10:02:59.636Z,82.81
2023-08-06T10:03:59.959Z,83.92
2023-08-06T10:04:59.561Z,83.41
2023-08-06T10:05:59.569Z,82.40
2023-08-06T10:06:59.545Z,82.30
2023-08-06T10:07:59.497Z,81.79
2023-08-06T10:08:59.486Z,81.29
2023-08-06T10:09:59.494Z,81.79
2023-08-06T10:10:59.464Z,82.87
2023-08-06T10:11:59.472Z,82.87
2023-08-06T10:12:59.443Z,83.68
2023-08-06T10:13:59.433Z,82.36
2023-08-06T10:14:59.410Z,74.16
2023-08-06T10:15:59.436Z,77.30
2023-08-06T10:16:59.387Z,78.62
2023-08-06T10:17:59.441Z,75.38
2023-08-06T10:18:59.355Z,72.85
2023-08-06T10:19:59.333Z,72.44
2023-08-06T10:20:59.334Z,70.52
2023-08-06T10:21:59.315Z,75.04
2023-08-06T10:22:59.304Z,77.77
2023-08-06T10:23:59.323Z,69.98
2023-08-06T10:24:59.313Z,75.34
2023-08-06T10:25:59.264Z,77.03
2023-08-06T10:26:59.277Z,75.81
2023-08-06T10:27:59.281Z,76.72
2023-08-06T10:28:59.259Z,74.66
2023-08-06T10:29:59.279Z,76.28
2023-08-06T10:30:59.215Z,74.66
2023-08-06T10:31:59.271Z,73.15
2023-08-06T10:32:59.208Z,74.02
2023-08-06T10:33:59.218Z,73.11
2023-08-06T10:34:59.217Z,73.22
2023-08-06T10:35:59.518Z,66.15
2023-08-06T10:36:59.121Z,68.87
2023-08-06T10:37:59.108Z,70.79
2023-08-06T10:38:59.083Z,65.24
2023-08-06T10:39:59.087Z,67.56
2023-08-06T10:40:59.094Z,69.38
2023-08-06T10:42:00.312Z,68.67
2023-08-06T10:42:59.023Z,63.32
2023-08-06T10:43:59.014Z,62.92
2023-08-06T10:44:59.011Z,67.97
2023-08-06T10:45:58.997Z,66.86
2023-08-06T10:46:59.115Z,65.84
2023-08-06T10:47:59.079Z,68.67
2023-08-06T10:48:58.950Z,64.43
2023-08-06T10:49:58.933Z,65.47
2023-08-06T10:50:58.929Z,65.98
2023-08-06T10:51:58.917Z,69.01
2023-08-06T10:52:58.954Z,66.18
2023-08-06T10:53:58.879Z,66.48
2023-08-06T10:54:58.880Z,66.21
2023-08-06T10:55:58.868Z,66.61
2023-08-06T10:56:58.848Z,64.70
2023-08-06T10:57:58.860Z,65.91
2023-08-06T10:58:58.867Z,67.32
2023-08-06T11:00:14.267Z,67.55
2023-08-06T11:00:58.828Z,66.14
2023-08-06T11:01:58.785Z,66.85
2023-08-06T11:02:58.842Z,67.55
2023-08-06T11:03:58.785Z,68.16
2023-08-06T11:04:58.745Z,68.47
2023-08-06T11:05:58.734Z,67.66
2023-08-06T11:06:58.711Z,66.64
2023-08-06T11:07:58.719Z,67.86
2023-08-06T11:08:58.744Z,67.86
2023-08-06T11:09:58.673Z,66.35
2023-08-06T11:11:04.097Z,67.35
2023-08-06T11:11:58.666Z,66.44
2023-08-06T11:12:58.646Z,68.67
2023-08-06T11:13:58.623Z,68.67
2023-08-06T11:14:58.623Z,68.06
2023-08-06T11:15:58.594Z,68.26
2023-08-06T11:16:58.628Z,68.26
2023-08-06T11:17:58.632Z,69.27
2023-08-06T11:18:58.595Z,70.29
2023-08-06T11:19:58.553Z,69.18
2023-08-06T11:20:58.571Z,67.43
2023-08-06T11:21:58.527Z,68.03
2023-08-06T11:22:58.539Z,67.83
2023-08-06T11:23:58.501Z,66.31
2023-08-06T11:24:58.469Z,67.52
2023-08-06T11:25:58.487Z,68.43
2023-08-06T11:26:58.490Z,68.43
2023-08-06T11:27:58.575Z,66.72
2023-08-06T11:28:58.441Z,66.11
2023-08-06T11:29:58.422Z,65.98
2023-08-06T11:30:58.440Z,66.38
2023-08-06T11:31:58.447Z,68.30
2023-08-06T11:32:58.364Z,68.00
2023-08-06T11:33:58.359Z,65.78
2023-08-06T11:34:58.340Z,66.45
2023-08-06T11:35:58.343Z,65.44
2023-08-06T11:36:58.326Z,65.24
2023-08-06T11:37:58.333Z,65.34
2023-08-06T11:38:58.297Z,65.24
2023-08-06T11:39:58.290Z,66.45
2023-08-06T11:40:58.275Z,65.34
2023-08-06T11:41:58.260Z,64.33
2023-08-06T11:42:58.258Z,64.23
2023-08-06T11:43:58.267Z,65.24
2023-08-06T11:44:58.222Z,62.62
2023-08-06T11:45:58.243Z,63.82
2023-08-06T11:46:58.209Z,64.53
2023-08-06T11:47:58.199Z,65.84
2023-08-06T11:48:58.203Z,64.73
2023-08-06T11:49:58.167Z,64.53
2023-08-06T11:50:58.124Z,63.93
2023-08-06T11:51:58.132Z,64.84
2023-08-06T11:52:58.140Z,64.64
2023-08-06T11:53:58.194Z,63.19
2023-08-06T11:54:58.082Z,64.00
2023-08-06T11:55:58.140Z,64.00
2023-08-06T11:56:58.042Z,63.49
2023-08-06T11:57:58.044Z,65.11
2023-08-06T11:58:58.028Z,62.96
2023-08-06T11:59:58.066Z,61.04
2023-08-06T12:00:58.033Z,60.94
2023-08-06T12:01:58.368Z,62.25
2023-08-06T12:02:58.020Z,61.35
2023-08-06T12:03:58.004Z,59.12
2023-08-06T12:04:57.938Z,64.17
2023-08-06T12:05:57.964Z,65.58
2023-08-06T12:06:57.945Z,65.48
2023-08-06T12:07:57.908Z,64.87
2023-08-06T12:08:57.894Z,61.14
2023-08-06T12:09:57.888Z,62.96
2023-08-06T12:10:57.868Z,64.30
2023-08-06T12:11:57.871Z,64.50
2023-08-06T12:12:57.849Z,65.71
2023-08-06T12:13:57.825Z,66.12
2023-08-06T12:14:57.816Z,66.25
2023-08-06T12:15:57.853Z,67.46
2023-08-06T12:16:57.789Z,68.67
2023-08-06T12:17:57.841Z,69.08
2023-08-06T12:18:57.760Z,70.19
2023-08-06T12:19:57.763Z,68.33
2023-08-06T12:20:57.736Z,65.51
2023-08-06T12:21:57.707Z,67.63
2023-08-06T12:22:57.740Z,66.82
2023-08-06T12:23:57.674Z,67.83
2023-08-06T12:24:57.676Z,70.66
2023-08-06T12:25:57.705Z,70.66
2023-08-06T12:26:57.647Z,71.87
2023-08-06T12:27:57.627Z,68.67
2023-08-06T12:28:57.671Z,66.35
2023-08-06T12:29:57.613Z,65.57
2023-08-06T12:30:57.683Z,66.58
2023-08-06T12:31:57.580Z,68.71
2023-08-06T12:32:57.597Z,64.26
2023-08-06T12:33:57.591Z,66.89
2023-08-06T12:34:57.546Z,69.21
2023-08-06T12:35:57.544Z,69.71
2023-08-06T12:36:57.504Z,70.93
2023-08-06T12:37:57.503Z,70.29
2023-08-06T12:38:57.500Z,69.48
2023-08-06T12:39:57.512Z,71.70
2023-08-06T12:40:57.462Z,71.50
2023-08-06T12:41:59.842Z,71.37
2023-08-06T12:42:57.428Z,69.55
2023-08-06T12:43:57.400Z,68.61
2023-08-06T12:44:57.444Z,68.30
2023-08-06T12:45:57.507Z,65.99
2023-08-06T12:46:57.381Z,65.18
2023-08-06T12:47:57.529Z,63.33
2023-08-06T12:48:57.353Z,65.35
2023-08-06T12:49:57.346Z,66.56
2023-08-06T12:50:57.346Z,67.97
2023-08-06T12:51:57.329Z,65.25